Time;durP1;ratioP1;P1;durP2;ratioP2;P2;SDS_P1;SDS_P2;PMS_P1;PMS_P2;Temp;Humidity;BMP_temperature;BMP_pressure;BME280_temperature;BME280_humidity;BME280_pressure;Samples;Min_cycle;Max_cycle;Signal;HPM_P1;HPM_P2
2022/10/19 00:02:10;;;;;;;93.53;30.05;;;;;;;;;;5091699;28;20020;-56
2022/10/19 00:04:36;;;;;;;105.45;31.52;;;;;;;;;;5086399;28;20356;-56
2022/10/19 00:07:01;;;;;;;94.80;32.08;;;;;;;;;;5085700;28;20422;-58
2022/10/19 00:09:26;;;;;;;98.47;31.55;;;;;;;;;;5095981;28;20369;-58
2022/10/19 00:11:51;;;;;;;93.32;31.58;;;;;;;;;;5080520;28;20424;-58
2022/10/19 00:14:18;;;;;;;85.57;30.50;;;;;;;;;;5097081;28;20423;-57
2022/10/19 00:16:43;;;;;;;97.40;30.00;;;;;;;;;;5088719;28;20012;-58
2022/10/19 00:19:10;;;;;;;96.93;32.63;;;;;;;;;;5091976;28;20484;-58
2022/10/19 00:21:36;;;;;;;84.13;32.25;;;;;;;;;;5095563;28;20060;-57
2022/10/19 00:24:01;;;;;;;97.85;33.40;;;;;;;;;;5083839;28;20024;-57
2022/10/19 00:26:26;;;;;;;102.60;32.47;;;;;;;;;;5096279;28;20098;-57
2022/10/19 00:28:53;;;;;;;110.07;34.22;;;;;;;;;;5083422;28;20103;-56
2022/10/19 00:31:18;;;;;;;80.22;29.40;;;;;;;;;;5087963;28;20016;-57
2022/10/19 00:33:45;;;;;;;79.00;29.80;;;;;;;;;;5091168;28;20035;-57
2022/10/19 00:36:24;;;;;;;75.55;29.83;;;;;;;;;;5089957;28;20025;-57
2022/10/19 00:38:49;;;;;;;95.28;30.95;;;;;;;;;;5091627;28;20092;-57
2022/10/19 00:41:14;;;;;;;172.23;34.00;;;;;;;;;;5086073;28;20423;-57
2022/10/19 00:43:55;;;;;;;719.92;42.20;;;;;;;;;;5087396;28;20138;-57
2022/10/19 00:46:20;;;;;;;;;;;;;;;;;;5086276;28;20031;-57
2022/10/19 00:48:45;;;;;;;773.37;43.33;;;;;;;;;;5090275;28;20246;-57
2022/10/19 00:51:10;;;;;;;647.05;41.78;;;;;;;;;;5076802;28;20274;-57
2022/10/19 00:53:35;;;;;;;275.50;36.08;;;;;;;;;;5061450;28;20309;-58
2022/10/19 00:56:02;;;;;;;678.45;43.28;;;;;;;;;;5088121;28;20027;-57
2022/10/19 00:58:27;;;;;;;349.67;36.47;;;;;;;;;;5089136;28;20265;-57
2022/10/19 01:00:52;;;;;;;341.98;33.13;;;;;;;;;;5088000;28;20055;-57
2022/10/19 01:03:17;;;;;;;430.65;33.72;;;;;;;;;;5090318;28;20019;-57
2022/10/19 01:05:43;;;;;;;457.25;39.38;;;;;;;;;;5085868;28;20037;-57
2022/10/19 01:08:08;;;;;;;617.80;38.00;;;;;;;;;;5084954;28;20032;-57
2022/10/19 01:11:05;;;;;;;560.22;36.92;;;;;;;;;;5090092;28;20039;-57
2022/10/19 01:13:31;;;;;;;691.03;34.85;;;;;;;;;;5049798;28;20035;-56
2022/10/19 01:15:58;;;;;;;616.83;30.63;;;;;;;;;;5096251;28;20472;-57
2022/10/19 01:18:39;;;;;;;602.83;32.22;;;;;;;;;;5093553;28;20093;-56
2022/10/19 01:21:20;;;;;;;475.75;25.45;;;;;;;;;;5085063;28;20366;-57
2022/10/19 01:24:00;;;;;;;675.97;40.65;;;;;;;;;;5086430;28;20077;-57
2022/10/19 01:26:44;;;;;;;924.33;44.15;;;;;;;;;;5085088;28;20025;-57
2022/10/19 01:29:17;;;;;;;574.95;27.67;;;;;;;;;;5091136;28;20028;-57
2022/10/19 01:31:51;;;;;;;500.98;27.30;;;;;;;;;;5078486;28;20065;-56
2022/10/19 01:34:18;;;;;;;673.50;32.10;;;;;;;;;;5082580;28;20035;-57
2022/10/19 01:36:48;;;;;;;757.28;36.92;;;;;;;;;;5085480;28;20024;-56
2022/10/19 01:39:18;;;;;;;725.53;35.93;;;;;;;;;;5084580;28;20031;-57
2022/10/19 01:41:46;;;;;;;997.13;43.15;;;;;;;;;;5075089;28;20334;-56
2022/10/19 01:44:11;;;;;;;515.53;31.23;;;;;;;;;;5086247;28;20016;-56
2022/10/19 01:46:37;;;;;;;583.75;31.95;;;;;;;;;;5091843;28;20063;-56
2022/10/19 01:49:10;;;;;;;710.08;34.42;;;;;;;;;;5085711;28;20474;-57
2022/10/19 01:51:37;;;;;;;527.65;31.92;;;;;;;;;;5081478;28;20031;-57
2022/10/19 01:54:03;;;;;;;563.15;31.70;;;;;;;;;;5080440;28;20036;-57
2022/10/19 01:56:29;;;;;;;562.90;33.63;;;;;;;;;;5086092;28;20027;-56
2022/10/19 01:58:55;;;;;;;543.63;30.85;;;;;;;;;;5086259;28;20113;-56
2022/10/19 02:01:20;;;;;;;511.23;31.48;;;;;;;;;;5088319;28;20522;-57
2022/10/19 02:03:46;;;;;;;332.38;29.13;;;;;;;;;;5088475;28;20031;-55
2022/10/19 02:06:11;;;;;;;454.85;32.10;;;;;;;;;;5079001;28;20665;-57
2022/10/19 02:08:41;;;;;;;702.65;35.90;;;;;;;;;;5087614;28;20470;-58
2022/10/19 02:11:06;;;;;;;363.05;29.75;;;;;;;;;;5086718;28;20031;-57
2022/10/19 02:13:31;;;;;;;219.95;26.10;;;;;;;;;;5083952;28;20304;-56
2022/10/19 02:15:57;;;;;;;347.98;31.35;;;;;;;;;;5081050;28;20016;-56
2022/10/19 02:18:24;;;;;;;565.15;30.67;;;;;;;;;;5088362;28;20074;-56
2022/10/19 02:20:49;;;;;;;243.07;26.58;;;;;;;;;;5088175;28;20020;-56
2022/10/19 02:23:14;;;;;;;702.90;33.08;;;;;;;;;;5088143;28;20069;-57
2022/10/19 02:25:39;;;;;;;353.52;28.15;;;;;;;;;;5084530;28;20019;-57
2022/10/19 02:28:05;;;;;;;340.10;28.30;;;;;;;;;;5085062;28;20028;-56
2022/10/19 02:30:30;;;;;;;380.08;29.00;;;;;;;;;;5084824;28;20024;-57
2022/10/19 02:32:55;;;;;;;401.45;28.95;;;;;;;;;;5089087;28;20107;-57
2022/10/19 02:35:21;;;;;;;363.58;29.75;;;;;;;;;;5083747;28;20025;-56
2022/10/19 02:37:47;;;;;;;507.25;30.55;;;;;;;;;;5087825;28;20473;-57
2022/10/19 02:40:12;;;;;;;529.47;33.88;;;;;;;;;;5091201;28;20047;-57
2022/10/19 02:42:38;;;;;;;360.15;31.08;;;;;;;;;;5088941;28;20043;-57
2022/10/19 02:45:03;;;;;;;543.47;34.80;;;;;;;;;;5086245;28;20382;-57
2022/10/19 02:47:30;;;;;;;427.92;31.88;;;;;;;;;;5086773;28;20020;-57
2022/10/19 02:49:55;;;;;;;275.20;28.50;;;;;;;;;;5085991;28;20035;-57
2022/10/19 02:52:20;;;;;;;295.67;30.08;;;;;;;;;;5096597;28;20027;-57
2022/10/19 02:54:46;;;;;;;383.85;31.27;;;;;;;;;;5093081;28;20023;-57
2022/10/19 02:57:15;;;;;;;444.80;32.33;;;;;;;;;;5095192;28;20050;-58
2022/10/19 02:59:40;;;;;;;429.40;31.57;;;;;;;;;;5091431;28;20032;-58
2022/10/19 03:02:06;;;;;;;511.10;32.60;;;;;;;;;;5082687;28;20272;-56
2022/10/19 03:04:31;;;;;;;370.30;31.02;;;;;;;;;;5084572;28;20040;-57
2022/10/19 03:06:56;;;;;;;152.10;27.27;;;;;;;;;;5080721;28;20110;-58
2022/10/19 03:09:21;;;;;;;452.05;31.25;;;;;;;;;;5085234;28;20028;-57
2022/10/19 03:11:47;;;;;;;389.65;33.33;;;;;;;;;;5091751;28;20020;-57
2022/10/19 03:14:12;;;;;;;389.65;29.65;;;;;;;;;;5086376;28;20024;-57
2022/10/19 03:16:37;;;;;;;307.95;27.92;;;;;;;;;;5093499;28;20240;-57
2022/10/19 03:19:02;;;;;;;510.05;31.30;;;;;;;;;;5090723;28;20036;-57
2022/10/19 03:21:28;;;;;;;349.00;30.42;;;;;;;;;;5086255;28;20024;-57
2022/10/19 03:23:53;;;;;;;326.80;29.30;;;;;;;;;;5088255;28;20020;-57
2022/10/19 03:26:18;;;;;;;285.30;26.30;;;;;;;;;;5101252;28;20035;-57
2022/10/19 03:28:44;;;;;;;187.18;24.98;;;;;;;;;;5087146;28;20020;-57
2022/10/19 03:31:09;;;;;;;255.23;29.48;;;;;;;;;;5089217;28;20041;-57
2022/10/19 03:33:34;;;;;;;830.63;38.35;;;;;;;;;;5091194;28;20020;-58
2022/10/19 03:36:12;;;;;;;767.55;37.47;;;;;;;;;;5090079;28;20053;-57
2022/10/19 03:38:38;;;;;;;587.03;35.83;;;;;;;;;;5093007;28;20518;-57
2022/10/19 03:41:06;;;;;;;175.77;28.35;;;;;;;;;;5093910;28;20065;-58
2022/10/19 03:43:31;;;;;;;117.13;26.52;;;;;;;;;;5091615;28;20020;-57
2022/10/19 03:45:56;;;;;;;274.83;27.48;;;;;;;;;;5086917;28;20024;-57
2022/10/19 03:48:22;;;;;;;358.98;29.48;;;;;;;;;;5102736;27;20031;-57
2022/10/19 03:50:47;;;;;;;440.33;30.15;;;;;;;;;;5096463;28;20098;-57
2022/10/19 03:53:13;;;;;;;218.88;29.67;;;;;;;;;;5090573;28;20023;-57
2022/10/19 03:55:38;;;;;;;126.55;27.27;;;;;;;;;;5090078;28;20020;-57
2022/10/19 03:58:03;;;;;;;349.00;29.05;;;;;;;;;;5090827;28;20128;-57
2022/10/19 04:00:29;;;;;;;154.43;27.27;;;;;;;;;;5095309;28;20153;-57
2022/10/19 04:02:54;;;;;;;292.90;27.58;;;;;;;;;;5078963;28;20112;-57
2022/10/19 04:05:19;;;;;;;106.40;27.05;;;;;;;;;;5084143;28;20047;-58
2022/10/19 04:07:44;;;;;;;131.00;23.60;;;;;;;;;;5087695;28;20020;-58
2022/10/19 04:10:10;;;;;;;161.68;24.77;;;;;;;;;;5093705;28;20122;-58
2022/10/19 04:12:35;;;;;;;179.82;24.50;;;;;;;;;;5084080;28;20303;-57
2022/10/19 04:15:00;;;;;;;177.55;25.55;;;;;;;;;;5094283;28;20422;-58
2022/10/19 04:17:25;;;;;;;212.45;25.35;;;;;;;;;;5083454;28;20039;-58
2022/10/19 04:19:51;;;;;;;165.43;25.20;;;;;;;;;;5087668;28;20031;-57
2022/10/19 04:22:16;;;;;;;124.72;24.08;;;;;;;;;;5083248;28;20516;-57
2022/10/19 04:24:41;;;;;;;140.68;22.60;;;;;;;;;;5091104;28;20614;-58
2022/10/19 04:27:06;;;;;;;131.75;24.33;;;;;;;;;;5087468;28;20028;-58
2022/10/19 04:29:32;;;;;;;99.50;23.10;;;;;;;;;;5088810;28;20035;-57
2022/10/19 04:31:57;;;;;;;105.88;23.73;;;;;;;;;;5085691;28;20020;-58
2022/10/19 04:34:23;;;;;;;236.00;25.55;;;;;;;;;;5092035;28;20027;-57
2022/10/19 04:36:48;;;;;;;133.82;25.65;;;;;;;;;;5095286;28;20539;-57
2022/10/19 04:39:13;;;;;;;90.38;23.30;;;;;;;;;;5086694;28;20031;-57
2022/10/19 04:41:38;;;;;;;187.90;25.95;;;;;;;;;;5087625;28;20027;-58
2022/10/19 04:44:05;;;;;;;124.93;23.00;;;;;;;;;;5087791;28;20216;-57
2022/10/19 04:46:30;;;;;;;94.13;23.35;;;;;;;;;;5085389;28;20350;-57
2022/10/19 04:48:56;;;;;;;103.28;25.10;;;;;;;;;;5095789;28;20031;-57
2022/10/19 04:51:21;;;;;;;114.20;24.85;;;;;;;;;;5086642;28;20078;-58
2022/10/19 04:53:47;;;;;;;112.47;24.48;;;;;;;;;;5085739;28;20023;-57
2022/10/19 04:56:19;;;;;;;111.07;23.23;;;;;;;;;;5090290;28;20020;-58
2022/10/19 04:58:44;;;;;;;94.97;24.20;;;;;;;;;;5085774;28;20067;-57
2022/10/19 05:01:28;;;;;;;84.32;23.90;;;;;;;;;;5087015;28;20047;-57
2022/10/19 05:03:54;;;;;;;107.68;24.95;;;;;;;;;;5096330;28;20016;-58
2022/10/19 05:06:20;;;;;;;97.07;24.90;;;;;;;;;;5088633;28;20069;-57
2022/10/19 05:08:46;;;;;;;115.60;26.27;;;;;;;;;;5085466;28;20020;-57
2022/10/19 05:11:13;;;;;;;103.55;24.42;;;;;;;;;;5088471;28;20020;-57
2022/10/19 05:13:38;;;;;;;112.80;26.15;;;;;;;;;;5081093;28;20181;-57
2022/10/19 05:16:04;;;;;;;239.55;26.38;;;;;;;;;;5091732;28;20535;-57
2022/10/19 05:18:29;;;;;;;105.88;25.23;;;;;;;;;;5085890;28;20036;-57
2022/10/19 05:21:01;;;;;;;118.47;25.60;;;;;;;;;;5082388;28;20024;-57
2022/10/19 05:23:27;;;;;;;102.53;27.58;;;;;;;;;;5087567;28;20111;-57
2022/10/19 05:26:16;;;;;;;158.98;26.50;;;;;;;;;;5094606;27;20137;-57
2022/10/19 05:28:41;;;;;;;98.55;25.75;;;;;;;;;;5079271;28;20065;-57
2022/10/19 05:31:17;;;;;;;106.30;27.15;;;;;;;;;;5086734;28;20064;-57
2022/10/19 05:33:42;;;;;;;105.00;27.17;;;;;;;;;;5090949;28;20485;-57
2022/10/19 05:36:14;;;;;;;114.82;28.13;;;;;;;;;;5080667;28;20059;-57
2022/10/19 05:38:40;;;;;;;127.00;26.50;;;;;;;;;;5085324;28;20064;-58
2022/10/19 05:41:05;;;;;;;110.38;27.05;;;;;;;;;;5079051;28;20078;-57
2022/10/19 05:43:30;;;;;;;121.57;28.95;;;;;;;;;;5087372;28;20020;-57
2022/10/19 05:45:56;;;;;;;107.03;29.42;;;;;;;;;;5086177;28;20424;-57
2022/10/19 05:48:21;;;;;;;100.97;28.23;;;;;;;;;;5085577;28;20057;-57
2022/10/19 05:50:53;;;;;;;99.47;27.60;;;;;;;;;;5089610;28;20031;-57
2022/10/19 05:53:18;;;;;;;92.95;26.75;;;;;;;;;;5081280;28;20106;-57
2022/10/19 05:55:43;;;;;;;102.63;29.30;;;;;;;;;;5089631;28;20099;-57
2022/10/19 05:58:08;;;;;;;69.60;26.15;;;;;;;;;;5089131;28;20126;-55
2022/10/19 06:00:34;;;;;;;74.32;26.67;;;;;;;;;;5093633;28;20027;-57
2022/10/19 06:02:59;;;;;;;82.72;27.48;;;;;;;;;;5087445;28;20035;-57
2022/10/19 06:05:24;;;;;;;73.50;25.98;;;;;;;;;;5097012;28;20452;-57
2022/10/19 06:07:49;;;;;;;88.60;26.80;;;;;;;;;;5089740;28;20096;-57
2022/10/19 06:10:14;;;;;;;108.93;27.67;;;;;;;;;;5092803;28;20111;-58
2022/10/19 06:12:40;;;;;;;81.25;25.02;;;;;;;;;;5087027;28;20030;-57
2022/10/19 06:15:05;;;;;;;84.38;27.17;;;;;;;;;;5090072;28;20024;-57
2022/10/19 06:17:30;;;;;;;83.50;26.65;;;;;;;;;;5091261;28;20035;-57
2022/10/19 06:19:56;;;;;;;79.97;27.02;;;;;;;;;;5088956;28;20031;-57
2022/10/19 06:22:21;;;;;;;88.05;29.52;;;;;;;;;;5086517;28;20470;-57
2022/10/19 06:24:46;;;;;;;74.13;27.45;;;;;;;;;;5089322;28;20028;-56
2022/10/19 06:27:11;;;;;;;85.13;28.75;;;;;;;;;;5085402;28;20020;-57
2022/10/19 06:29:37;;;;;;;93.70;29.08;;;;;;;;;;5090765;28;20389;-57
2022/10/19 06:32:02;;;;;;;92.80;29.42;;;;;;;;;;5088523;28;20351;-57
2022/10/19 06:34:27;;;;;;;87.72;27.92;;;;;;;;;;5079503;28;20038;-57
2022/10/19 06:36:52;;;;;;;90.65;28.50;;;;;;;;;;5084119;28;20400;-58
2022/10/19 06:39:18;;;;;;;87.50;27.48;;;;;;;;;;5090206;28;20455;-57
2022/10/19 06:41:43;;;;;;;76.32;27.70;;;;;;;;;;5089204;28;20130;-57
2022/10/19 06:44:08;;;;;;;88.30;29.15;;;;;;;;;;5092391;28;20023;-57
2022/10/19 06:46:33;;;;;;;83.40;27.35;;;;;;;;;;5077769;28;20523;-57
2022/10/19 06:48:59;;;;;;;71.93;26.65;;;;;;;;;;5082639;28;20032;-56
2022/10/19 06:51:25;;;;;;;76.60;28.27;;;;;;;;;;5091477;28;20417;-57
2022/10/19 06:53:51;;;;;;;89.78;27.92;;;;;;;;;;5085489;28;20023;-57
2022/10/19 06:56:16;;;;;;;98.43;28.90;;;;;;;;;;5089364;28;20113;-57
2022/10/19 06:58:41;;;;;;;89.45;29.63;;;;;;;;;;5086989;28;20123;-57
2022/10/19 07:01:06;;;;;;;82.97;29.17;;;;;;;;;;5090195;28;20020;-57
2022/10/19 07:03:32;;;;;;;85.53;30.08;;;;;;;;;;5096708;28;20026;-57
2022/10/19 07:06:00;;;;;;;80.35;28.83;;;;;;;;;;5083301;28;20048;-60
2022/10/19 07:08:26;;;;;;;77.13;27.83;;;;;;;;;;5088314;28;20023;-58
2022/10/19 07:10:52;;;;;;;74.50;27.60;;;;;;;;;;5094359;28;20039;-57
2022/10/19 07:13:17;;;;;;;71.40;25.88;;;;;;;;;;5087628;28;20031;-58
2022/10/19 07:15:42;;;;;;;66.07;24.23;;;;;;;;;;5091725;28;20149;-56
2022/10/19 07:18:07;;;;;;;67.75;25.10;;;;;;;;;;5093445;28;20035;-58
2022/10/19 07:20:32;;;;;;;62.63;24.13;;;;;;;;;;5098678;28;20439;-56
2022/10/19 07:22:58;;;;;;;70.03;23.15;;;;;;;;;;5091795;28;21917;-57
2022/10/19 07:25:23;;;;;;;57.10;23.98;;;;;;;;;;5086373;28;20016;-58
2022/10/19 07:27:49;;;;;;;49.90;21.15;;;;;;;;;;5073956;28;20040;-58
2022/10/19 07:30:14;;;;;;;50.83;21.20;;;;;;;;;;5090910;28;20020;-58
2022/10/19 07:32:39;;;;;;;40.28;18.27;;;;;;;;;;5089089;28;20073;-59
2022/10/19 07:35:05;;;;;;;39.70;17.92;;;;;;;;;;5091397;28;20026;-57
2022/10/19 07:37:30;;;;;;;33.58;16.50;;;;;;;;;;5089839;28;20370;-57
2022/10/19 07:39:55;;;;;;;36.90;16.45;;;;;;;;;;5092244;28;20134;-57
2022/10/19 07:42:20;;;;;;;35.92;16.83;;;;;;;;;;5094879;28;20421;-57
2022/10/19 07:44:46;;;;;;;40.35;16.98;;;;;;;;;;5097605;28;20023;-57
2022/10/19 07:47:11;;;;;;;33.17;14.85;;;;;;;;;;5090304;28;20032;-57
2022/10/19 07:49:37;;;;;;;26.15;14.80;;;;;;;;;;5087267;28;20024;-57
2022/10/19 07:52:02;;;;;;;34.22;15.13;;;;;;;;;;5085453;28;20059;-57
2022/10/19 07:54:27;;;;;;;27.42;13.80;;;;;;;;;;5090768;28;20031;-57
2022/10/19 07:56:53;;;;;;;34.90;15.48;;;;;;;;;;5090810;28;20016;-57
2022/10/19 07:59:18;;;;;;;29.48;14.50;;;;;;;;;;5088157;28;20091;-57
2022/10/19 08:01:43;;;;;;;27.65;13.65;;;;;;;;;;5090073;28;20036;-57
2022/10/19 08:04:09;;;;;;;33.22;13.68;;;;;;;;;;5091749;28;20036;-57
2022/10/19 08:06:35;;;;;;;29.92;13.43;;;;;;;;;;5092492;28;20044;-57
2022/10/19 08:09:00;;;;;;;29.55;13.32;;;;;;;;;;5089653;28;20077;-57
2022/10/19 08:11:29;;;;;;;25.35;12.27;;;;;;;;;;5092612;28;20047;-57
2022/10/19 08:13:57;;;;;;;24.83;11.90;;;;;;;;;;5088505;28;20107;-57
2022/10/19 08:16:22;;;;;;;28.98;12.13;;;;;;;;;;5093200;28;20015;-57
2022/10/19 08:18:48;;;;;;;22.05;11.25;;;;;;;;;;5081374;28;20032;-57
2022/10/19 08:21:14;;;;;;;24.83;12.20;;;;;;;;;;5086773;28;20471;-57
2022/10/19 08:23:40;;;;;;;31.38;11.80;;;;;;;;;;5092446;28;20019;-57
2022/10/19 08:26:05;;;;;;;29.45;11.77;;;;;;;;;;5088408;28;20054;-57
2022/10/19 08:28:30;;;;;;;29.00;10.77;;;;;;;;;;5091738;28;20031;-57
2022/10/19 08:30:57;;;;;;;18.85;10.00;;;;;;;;;;5084481;28;20526;-57
2022/10/19 08:33:23;;;;;;;23.15;9.50;;;;;;;;;;5092314;28;20035;-57
2022/10/19 08:35:48;;;;;;;23.98;9.77;;;;;;;;;;5084794;28;20016;-57
2022/10/19 08:38:13;;;;;;;28.33;10.07;;;;;;;;;;5091367;28;20124;-57
2022/10/19 08:40:38;;;;;;;18.55;10.25;;;;;;;;;;5089774;28;20058;-57
2022/10/19 08:43:05;;;;;;;21.33;10.85;;;;;;;;;;5093782;28;20024;-57
2022/10/19 08:45:40;;;;;;;21.50;9.52;;;;;;;;;;5094089;28;20031;-57
2022/10/19 08:48:22;;;;;;;24.73;9.57;;;;;;;;;;5089298;28;20455;-57
2022/10/19 08:50:48;;;;;;;22.48;9.13;;;;;;;;;;5077599;28;20021;-58
2022/10/19 08:53:32;;;;;;;22.05;8.07;;;;;;;;;;5093407;28;20097;-57
2022/10/19 08:55:57;;;;;;;19.13;9.25;;;;;;;;;;5079388;28;20104;-56
2022/10/19 08:58:39;;;;;;;17.80;8.82;;;;;;;;;;5091774;28;20106;-57
2022/10/19 09:01:24;;;;;;;16.90;7.88;;;;;;;;;;5090476;28;20028;-57
2022/10/19 09:04:01;;;;;;;23.05;8.27;;;;;;;;;;5089269;28;20024;-57
2022/10/19 09:06:29;;;;;;;24.88;9.40;;;;;;;;;;5097908;28;20538;-57
2022/10/19 09:08:54;;;;;;;18.08;8.93;;;;;;;;;;5086146;28;20051;-57
2022/10/19 09:11:21;;;;;;;20.35;7.22;;;;;;;;;;5090112;28;20008;-57
2022/10/19 09:13:48;;;;;;;18.10;7.90;;;;;;;;;;5086866;28;20050;-56
2022/10/19 09:16:14;;;;;;;18.92;7.43;;;;;;;;;;5089819;28;20369;-56
2022/10/19 09:18:39;;;;;;;20.48;7.75;;;;;;;;;;5090681;28;20031;-57
2022/10/19 09:21:05;;;;;;;15.85;7.53;;;;;;;;;;5091189;28;20020;-57
2022/10/19 09:23:33;;;;;;;21.75;7.85;;;;;;;;;;5089766;28;20555;-57
2022/10/19 09:25:58;;;;;;;16.85;6.68;;;;;;;;;;5094583;28;20396;-57
2022/10/19 09:28:42;;;;;;;13.10;6.63;;;;;;;;;;5089362;28;20024;-56
2022/10/19 09:31:14;;;;;;;14.60;7.43;;;;;;;;;;5087253;28;20059;-57
2022/10/19 09:33:40;;;;;;;19.40;7.25;;;;;;;;;;5105536;27;20035;-57
2022/10/19 09:36:05;;;;;;;14.40;7.13;;;;;;;;;;5084545;28;20020;-56
2022/10/19 09:38:30;;;;;;;15.98;7.10;;;;;;;;;;5091056;28;20355;-57
2022/10/19 09:41:16;;;;;;;17.08;7.25;;;;;;;;;;5087995;28;20416;-58
2022/10/19 09:43:49;;;;;;;18.45;7.38;;;;;;;;;;5085080;28;20026;-57
2022/10/19 09:46:17;;;;;;;19.00;6.82;;;;;;;;;;5086094;28;20024;-56
2022/10/19 09:48:49;;;;;;;19.58;8.32;;;;;;;;;;5093494;28;20016;-56
2022/10/19 09:51:14;;;;;;;15.55;7.72;;;;;;;;;;5084588;28;20039;-57
2022/10/19 09:53:43;;;;;;;19.73;8.00;;;;;;;;;;5092185;28;20012;-57
2022/10/19 09:56:08;;;;;;;18.15;7.55;;;;;;;;;;5090560;28;20056;-57
2022/10/19 09:58:34;;;;;;;16.95;7.38;;;;;;;;;;5087045;28;20067;-57
2022/10/19 10:01:00;;;;;;;17.60;7.43;;;;;;;;;;5084848;28;20081;-57
2022/10/19 10:03:26;;;;;;;18.10;7.15;;;;;;;;;;5088879;28;20058;-57
2022/10/19 10:05:52;;;;;;;18.23;8.00;;;;;;;;;;5082786;28;20109;-57
2022/10/19 10:08:18;;;;;;;23.88;8.35;;;;;;;;;;5089680;28;20015;-57
2022/10/19 10:10:51;;;;;;;19.27;8.02;;;;;;;;;;5090835;28;20023;-57
2022/10/19 10:13:17;;;;;;;21.23;8.60;;;;;;;;;;5085597;28;20424;-56
2022/10/19 10:15:43;;;;;;;25.98;9.35;;;;;;;;;;5085570;28;20019;-57
2022/10/19 10:18:15;;;;;;;18.02;7.35;;;;;;;;;;5097039;28;20530;-57
2022/10/19 10:21:00;;;;;;;20.02;7.55;;;;;;;;;;5093455;28;20130;-57
2022/10/19 10:23:26;;;;;;;22.20;7.30;;;;;;;;;;5086810;28;20430;-57
2022/10/19 10:25:53;;;;;;;15.02;7.45;;;;;;;;;;5087693;28;20115;-57
2022/10/19 10:28:20;;;;;;;13.98;7.13;;;;;;;;;;5086938;28;20067;-57
2022/10/19 10:30:45;;;;;;;16.45;7.72;;;;;;;;;;5079957;28;20024;-57
2022/10/19 10:33:14;;;;;;;12.32;7.00;;;;;;;;;;5076349;28;20109;-57
2022/10/19 10:35:40;;;;;;;17.25;7.35;;;;;;;;;;5072849;28;20020;-57
2022/10/19 10:38:07;;;;;;;19.20;7.30;;;;;;;;;;5081439;28;20028;-57
2022/10/19 10:40:32;;;;;;;17.00;7.85;;;;;;;;;;5087658;28;20557;-57
2022/10/19 10:43:07;;;;;;;16.05;7.07;;;;;;;;;;5088493;28;20024;-57
2022/10/19 10:45:36;;;;;;;14.80;7.07;;;;;;;;;;5083712;28;20047;-57
2022/10/19 10:48:16;;;;;;;15.77;7.30;;;;;;;;;;5081211;28;20434;-57
2022/10/19 10:50:41;;;;;;;15.13;6.28;;;;;;;;;;5078913;28;20024;-57
2022/10/19 10:53:09;;;;;;;22.23;7.07;;;;;;;;;;5084329;28;20024;-57
2022/10/19 10:55:34;;;;;;;17.88;6.57;;;;;;;;;;5078448;28;20020;-57
2022/10/19 10:58:09;;;;;;;12.88;6.53;;;;;;;;;;5092463;28;20036;-57
2022/10/19 11:00:37;;;;;;;14.35;7.05;;;;;;;;;;5082662;28;20035;-57
2022/10/19 11:03:07;;;;;;;15.00;6.63;;;;;;;;;;5088258;28;20047;-57
2022/10/19 11:05:33;;;;;;;13.95;6.38;;;;;;;;;;5090247;28;20050;-57
2022/10/19 11:08:05;;;;;;;11.90;6.05;;;;;;;;;;5082863;28;20021;-57
2022/10/19 11:10:32;;;;;;;12.38;6.13;;;;;;;;;;5082911;28;20588;-56
2022/10/19 11:13:12;;;;;;;16.05;6.13;;;;;;;;;;5080320;28;20035;-57
2022/10/19 11:15:58;;;;;;;15.45;6.57;;;;;;;;;;5086421;28;20023;-57
2022/10/19 11:18:49;;;;;;;15.48;6.50;;;;;;;;;;5082464;28;20040;-56
2022/10/19 11:21:35;;;;;;;14.15;7.32;;;;;;;;;;5082092;28;20139;-57
2022/10/19 11:24:04;;;;;;;15.63;6.82;;;;;;;;;;5089009;28;20081;-56
2022/10/19 11:26:34;;;;;;;15.80;7.25;;;;;;;;;;5090107;28;20125;-57
2022/10/19 11:29:29;;;;;;;11.93;6.53;;;;;;;;;;5087194;28;20513;-57
2022/10/19 11:31:54;;;;;;;18.77;6.78;;;;;;;;;;5017370;28;20069;-57
2022/10/19 11:34:19;;;;;;;15.27;6.80;;;;;;;;;;5084292;28;20048;-59
2022/10/19 11:36:44;;;;;;;15.85;6.78;;;;;;;;;;5084735;28;20044;-56
2022/10/19 11:39:15;;;;;;;15.05;6.90;;;;;;;;;;5090277;28;20040;-57
2022/10/19 11:41:46;;;;;;;16.50;7.30;;;;;;;;;;5089292;28;20093;-57
2022/10/19 11:44:19;;;;;;;12.57;6.00;;;;;;;;;;5082972;28;20019;-58
2022/10/19 11:46:47;;;;;;;19.60;6.25;;;;;;;;;;5100951;28;20106;-57
2022/10/19 11:49:15;;;;;;;15.02;7.00;;;;;;;;;;5096738;28;20019;-58
2022/10/19 11:51:52;;;;;;;14.05;6.60;;;;;;;;;;5092185;28;20036;-57
2022/10/19 11:54:20;;;;;;;14.75;6.68;;;;;;;;;;5092293;28;20023;-57
2022/10/19 11:57:06;;;;;;;14.45;6.72;;;;;;;;;;5092215;28;20609;-57
2022/10/19 11:59:50;;;;;;;15.07;6.35;;;;;;;;;;5101288;28;20035;-55
2022/10/19 12:02:27;;;;;;;17.33;6.20;;;;;;;;;;5086283;28;20032;-57
2022/10/19 12:04:55;;;;;;;12.60;5.78;;;;;;;;;;5095651;28;20048;-57
2022/10/19 12:07:38;;;;;;;14.85;6.32;;;;;;;;;;5084136;28;20050;-58
2022/10/19 12:10:13;;;;;;;16.42;6.05;;;;;;;;;;5092445;28;20406;-57
2022/10/19 12:12:39;;;;;;;14.85;6.80;;;;;;;;;;5095298;28;20118;-56
2022/10/19 12:15:04;;;;;;;17.00;6.28;;;;;;;;;;5089922;28;20024;-58
2022/10/19 12:17:31;;;;;;;14.10;6.20;;;;;;;;;;5092537;28;20069;-56
2022/10/19 12:20:02;;;;;;;12.55;5.82;;;;;;;;;;5087244;28;20198;-56
2022/10/19 12:22:27;;;;;;;11.57;5.63;;;;;;;;;;5092485;28;20048;-57
2022/10/19 12:24:54;;;;;;;14.02;5.60;;;;;;;;;;5093538;28;20052;-58
2022/10/19 12:27:23;;;;;;;17.25;6.43;;;;;;;;;;5086125;28;20172;-56
2022/10/19 12:29:48;;;;;;;12.18;5.90;;;;;;;;;;5089571;28;20051;-57
2022/10/19 12:32:14;;;;;;;14.02;6.43;;;;;;;;;;5087803;28;20441;-56
2022/10/19 12:34:48;;;;;;;12.98;5.13;;;;;;;;;;5090938;28;20026;-56
2022/10/19 12:37:25;;;;;;;12.80;5.43;;;;;;;;;;5092482;28;20023;-55
2022/10/19 12:39:52;;;;;;;13.73;5.65;;;;;;;;;;5085711;28;20027;-56
2022/10/19 12:42:36;;;;;;;13.75;5.75;;;;;;;;;;5093482;27;20265;-56
2022/10/19 12:45:01;;;;;;;14.35;5.32;;;;;;;;;;5086025;28;20111;-55
2022/10/19 12:47:27;;;;;;;19.98;7.57;;;;;;;;;;5088643;28;20461;-56
2022/10/19 12:49:54;;;;;;;12.60;5.43;;;;;;;;;;5084324;28;20066;-56
2022/10/19 12:52:38;;;;;;;12.88;5.13;;;;;;;;;;5082902;28;20024;-56
2022/10/19 12:55:24;;;;;;;11.07;5.28;;;;;;;;;;5087169;28;20281;-56
2022/10/19 12:57:55;;;;;;;13.95;5.82;;;;;;;;;;5088758;28;20113;-56
2022/10/19 13:00:21;;;;;;;12.55;4.78;;;;;;;;;;5085471;28;20028;-56
2022/10/19 13:02:47;;;;;;;11.57;4.72;;;;;;;;;;5091077;28;20028;-56
2022/10/19 13:05:22;;;;;;;14.80;5.22;;;;;;;;;;5094288;28;20054;-57
2022/10/19 13:07:47;;;;;;;13.68;5.15;;;;;;;;;;5092347;28;20052;-57
2022/10/19 13:10:17;;;;;;;9.48;4.60;;;;;;;;;;5089430;28;20074;-56
2022/10/19 13:12:43;;;;;;;11.43;5.32;;;;;;;;;;5089873;28;20339;-55
2022/10/19 13:15:29;;;;;;;16.05;5.43;;;;;;;;;;5094189;28;20548;-56
2022/10/19 13:17:54;;;;;;;13.98;5.30;;;;;;;;;;5091015;28;20414;-56
2022/10/19 13:20:19;;;;;;;15.15;4.82;;;;;;;;;;5087109;28;20020;-57
2022/10/19 13:22:49;;;;;;;12.93;4.57;;;;;;;;;;5095706;28;20031;-56
2022/10/19 13:25:27;;;;;;;12.90;4.95;;;;;;;;;;5090755;28;20024;-56
2022/10/19 13:27:53;;;;;;;14.88;5.03;;;;;;;;;;5089122;28;20475;-57
2022/10/19 13:30:34;;;;;;;14.00;5.47;;;;;;;;;;5092024;28;20050;-56
2022/10/19 13:33:17;;;;;;;16.85;5.60;;;;;;;;;;5091476;28;20107;-56
2022/10/19 13:35:43;;;;;;;14.27;5.57;;;;;;;;;;5082887;28;20045;-56
2022/10/19 13:38:11;;;;;;;12.85;5.13;;;;;;;;;;5093789;28;20039;-57
2022/10/19 13:40:37;;;;;;;12.05;5.03;;;;;;;;;;5093120;28;20016;-56
2022/10/19 13:43:02;;;;;;;10.90;4.95;;;;;;;;;;5089323;28;20034;-54
2022/10/19 13:45:27;;;;;;;12.20;5.72;;;;;;;;;;5087773;28;20028;-55
2022/10/19 13:47:57;;;;;;;13.80;4.88;;;;;;;;;;5086724;28;20017;-56
2022/10/19 13:50:29;;;;;;;16.48;5.93;;;;;;;;;;5086571;28;20496;-56
2022/10/19 13:53:00;;;;;;;9.07;4.97;;;;;;;;;;5084594;28;20051;-56
2022/10/19 13:55:38;;;;;;;14.38;5.20;;;;;;;;;;5094522;28;20056;-57
2022/10/19 13:58:12;;;;;;;11.30;5.22;;;;;;;;;;5090023;28;20393;-55
2022/10/19 14:01:00;;;;;;;13.35;5.10;;;;;;;;;;5075497;28;20482;-57
2022/10/19 14:03:40;;;;;;;11.05;5.30;;;;;;;;;;5089793;28;20065;-56
2022/10/19 14:06:41;;;;;;;15.63;5.75;;;;;;;;;;5089725;28;20079;-56
2022/10/19 14:09:18;;;;;;;11.73;5.32;;;;;;;;;;5041933;28;20032;-57
2022/10/19 14:11:47;;;;;;;11.15;4.93;;;;;;;;;;5081814;28;20106;-57
2022/10/19 14:14:17;;;;;;;14.80;6.13;;;;;;;;;;5084630;28;20047;-56
2022/10/19 14:16:52;;;;;;;17.90;5.55;;;;;;;;;;5086261;28;20082;-56
2022/10/19 14:19:25;;;;;;;10.80;5.40;;;;;;;;;;5086460;28;20074;-56
2022/10/19 14:21:51;;;;;;;11.55;5.82;;;;;;;;;;5088690;28;20347;-56
2022/10/19 14:24:34;;;;;;;12.93;5.47;;;;;;;;;;5090782;28;20034;-56
2022/10/19 14:27:00;;;;;;;14.45;5.82;;;;;;;;;;5089364;28;20059;-56